sensor_id;sensor_type;location;lat;lon;timestamp;P1;durP1;ratioP1;P2;durP2;ratioP2
52786;SDS011;38661;53.152;5.846;2023-08-12T00:00:08;9.02;;;6.60;;
52786;SDS011;38661;53.152;5.846;2023-08-12T00:02:38;11.40;;;6.80;;
52786;SDS011;38661;53.152;5.846;2023-08-12T00:05:05;9.65;;;6.55;;
52786;SDS011;38661;53.152;5.846;2023-08-12T00:07:32;12.13;;;6.22;;
52786;SDS011;38661;53.152;5.846;2023-08-12T00:10:01;8.77;;;5.50;;
52786;SDS011;38661;53.152;5.846;2023-08-12T00:12:29;8.13;;;6.18;;
52786;SDS011;38661;53.152;5.846;2023-08-12T00:14:58;10.32;;;5.43;;
52786;SDS011;38661;53.152;5.846;2023-08-12T00:17:24;7.18;;;5.60;;
52786;SDS011;38661;53.152;5.846;2023-08-12T00:19:50;8.80;;;5.35;;
52786;SDS011;38661;53.152;5.846;2023-08-12T00:22:16;8.10;;;5.68;;
52786;SDS011;38661;53.152;5.846;2023-08-12T00:24:42;10.02;;;5.70;;
52786;SDS011;38661;53.152;5.846;2023-08-12T00:27:08;10.10;;;5.78;;
52786;SDS011;38661;53.152;5.846;2023-08-12T00:29:34;10.25;;;6.18;;
52786;SDS011;38661;53.152;5.846;2023-08-12T00:32:00;10.50;;;6.25;;
52786;SDS011;38661;53.152;5.846;2023-08-12T00:34:26;10.65;;;5.75;;
52786;SDS011;38661;53.152;5.846;2023-08-12T00:36:52;12.63;;;6.22;;
52786;SDS011;38661;53.152;5.846;2023-08-12T00:39:17;14.98;;;5.90;;
52786;SDS011;38661;53.152;5.846;2023-08-12T00:41:43;7.35;;;5.60;;
52786;SDS011;38661;53.152;5.846;2023-08-12T00:44:09;9.40;;;5.90;;
52786;SDS011;38661;53.152;5.846;2023-08-12T00:46:35;9.95;;;6.47;;
52786;SDS011;38661;53.152;5.846;2023-08-12T00:49:02;9.27;;;6.50;;
52786;SDS011;38661;53.152;5.846;2023-08-12T00:51:29;8.32;;;6.50;;
52786;SDS011;38661;53.152;5.846;2023-08-12T00:53:56;7.28;;;5.60;;
52786;SDS011;38661;53.152;5.846;2023-08-12T00:56:24;11.45;;;7.10;;
52786;SDS011;38661;53.152;5.846;2023-08-12T00:58:51;8.45;;;4.90;;
52786;SDS011;38661;53.152;5.846;2023-08-12T01:01:18;12.73;;;6.65;;
52786;SDS011;38661;53.152;5.846;2023-08-12T01:03:45;10.68;;;6.50;;
52786;SDS011;38661;53.152;5.846;2023-08-12T01:06:11;8.15;;;6.45;;
52786;SDS011;38661;53.152;5.846;2023-08-12T01:08:38;11.05;;;7.68;;
52786;SDS011;38661;53.152;5.846;2023-08-12T01:11:19;7.43;;;5.47;;
52786;SDS011;38661;53.152;5.846;2023-08-12T01:13:58;9.50;;;6.97;;
52786;SDS011;38661;53.152;5.846;2023-08-12T01:16:42;11.32;;;6.50;;
52786;SDS011;38661;53.152;5.846;2023-08-12T01:19:16;11.13;;;6.65;;
52786;SDS011;38661;53.152;5.846;2023-08-12T01:22:00;13.65;;;7.57;;
52786;SDS011;38661;53.152;5.846;2023-08-12T01:24:27;13.48;;;7.40;;
52786;SDS011;38661;53.152;5.846;2023-08-12T01:26:58;11.32;;;7.05;;
52786;SDS011;38661;53.152;5.846;2023-08-12T01:29:24;10.40;;;7.35;;
52786;SDS011;38661;53.152;5.846;2023-08-12T01:32:10;9.18;;;6.60;;
52786;SDS011;38661;53.152;5.846;2023-08-12T01:34:47;11.38;;;7.55;;
52786;SDS011;38661;53.152;5.846;2023-08-12T01:37:24;9.88;;;6.65;;
52786;SDS011;38661;53.152;5.846;2023-08-12T01:39:52;12.43;;;7.45;;
52786;SDS011;38661;53.152;5.846;2023-08-12T01:42:20;13.02;;;7.65;;
52786;SDS011;38661;53.152;5.846;2023-08-12T01:44:46;9.65;;;7.05;;
52786;SDS011;38661;53.152;5.846;2023-08-12T01:47:13;11.82;;;8.65;;
52786;SDS011;38661;53.152;5.846;2023-08-12T01:49:39;13.30;;;8.13;;
52786;SDS011;38661;53.152;5.846;2023-08-12T01:52:05;12.38;;;8.85;;
52786;SDS011;38661;53.152;5.846;2023-08-12T01:54:30;13.43;;;8.73;;
52786;SDS011;38661;53.152;5.846;2023-08-12T01:57:02;13.05;;;8.38;;
52786;SDS011;38661;53.152;5.846;2023-08-12T01:59:31;13.23;;;8.25;;
52786;SDS011;38661;53.152;5.846;2023-08-12T02:01:57;13.70;;;7.88;;
52786;SDS011;38661;53.152;5.846;2023-08-12T02:04:23;13.95;;;9.15;;
52786;SDS011;38661;53.152;5.846;2023-08-12T02:06:48;14.30;;;8.48;;
52786;SDS011;38661;53.152;5.846;2023-08-12T02:09:15;12.77;;;8.95;;
52786;SDS011;38661;53.152;5.846;2023-08-12T02:11:40;14.98;;;8.63;;
52786;SDS011;38661;53.152;5.846;2023-08-12T02:14:06;14.95;;;9.25;;
52786;SDS011;38661;53.152;5.846;2023-08-12T02:16:32;12.52;;;8.52;;
52786;SDS011;38661;53.152;5.846;2023-08-12T02:18:57;12.75;;;9.02;;
52786;SDS011;38661;53.152;5.846;2023-08-12T02:21:23;15.10;;;8.93;;
52786;SDS011;38661;53.152;5.846;2023-08-12T02:23:49;14.77;;;9.27;;
52786;SDS011;38661;53.152;5.846;2023-08-12T02:26:15;13.02;;;8.65;;
52786;SDS011;38661;53.152;5.846;2023-08-12T02:28:41;12.35;;;8.57;;
52786;SDS011;38661;53.152;5.846;2023-08-12T02:31:06;14.20;;;9.05;;
52786;SDS011;38661;53.152;5.846;2023-08-12T02:33:32;11.50;;;8.20;;
52786;SDS011;38661;53.152;5.846;2023-08-12T02:35:58;14.98;;;8.95;;
52786;SDS011;38661;53.152;5.846;2023-08-12T02:38:24;14.32;;;9.10;;
52786;SDS011;38661;53.152;5.846;2023-08-12T02:40:50;14.07;;;8.75;;
52786;SDS011;38661;53.152;5.846;2023-08-12T02:43:16;12.27;;;9.23;;
52786;SDS011;38661;53.152;5.846;2023-08-12T02:45:42;13.35;;;8.90;;
52786;SDS011;38661;53.152;5.846;2023-08-12T02:48:09;12.10;;;8.88;;
52786;SDS011;38661;53.152;5.846;2023-08-12T02:50:35;14.02;;;8.70;;
52786;SDS011;38661;53.152;5.846;2023-08-12T02:53:01;11.38;;;8.10;;
52786;SDS011;38661;53.152;5.846;2023-08-12T02:55:27;14.93;;;8.52;;
52786;SDS011;38661;53.152;5.846;2023-08-12T02:57:53;13.02;;;8.02;;
52786;SDS011;38661;53.152;5.846;2023-08-12T03:00:19;13.70;;;8.98;;
52786;SDS011;38661;53.152;5.846;2023-08-12T03:02:45;14.23;;;8.77;;
52786;SDS011;38661;53.152;5.846;2023-08-12T03:05:11;13.00;;;8.75;;
52786;SDS011;38661;53.152;5.846;2023-08-12T03:07:36;12.35;;;8.75;;
52786;SDS011;38661;53.152;5.846;2023-08-12T03:10:02;15.13;;;8.43;;
52786;SDS011;38661;53.152;5.846;2023-08-12T03:12:28;12.18;;;8.57;;
52786;SDS011;38661;53.152;5.846;2023-08-12T03:14:54;15.55;;;9.70;;
52786;SDS011;38661;53.152;5.846;2023-08-12T03:17:19;11.88;;;8.45;;
52786;SDS011;38661;53.152;5.846;2023-08-12T03:19:45;17.38;;;9.63;;
52786;SDS011;38661;53.152;5.846;2023-08-12T03:22:11;13.43;;;8.73;;
52786;SDS011;38661;53.152;5.846;2023-08-12T03:24:36;12.98;;;8.57;;
52786;SDS011;38661;53.152;5.846;2023-08-12T03:27:02;14.18;;;9.90;;
52786;SDS011;38661;53.152;5.846;2023-08-12T03:29:28;14.18;;;9.45;;
52786;SDS011;38661;53.152;5.846;2023-08-12T03:31:54;12.25;;;8.70;;
52786;SDS011;38661;53.152;5.846;2023-08-12T03:34:19;16.15;;;9.80;;
52786;SDS011;38661;53.152;5.846;2023-08-12T03:36:45;13.43;;;9.75;;
52786;SDS011;38661;53.152;5.846;2023-08-12T03:39:13;13.60;;;9.43;;
52786;SDS011;38661;53.152;5.846;2023-08-12T03:41:39;11.23;;;8.02;;
52786;SDS011;38661;53.152;5.846;2023-08-12T03:44:05;13.73;;;9.82;;
52786;SDS011;38661;53.152;5.846;2023-08-12T03:46:30;13.75;;;9.15;;
52786;SDS011;38661;53.152;5.846;2023-08-12T03:48:56;15.35;;;9.77;;
52786;SDS011;38661;53.152;5.846;2023-08-12T03:51:22;14.55;;;10.52;;
52786;SDS011;38661;53.152;5.846;2023-08-12T03:53:48;14.18;;;9.90;;
52786;SDS011;38661;53.152;5.846;2023-08-12T03:56:13;15.77;;;10.68;;
52786;SDS011;38661;53.152;5.846;2023-08-12T03:58:41;15.52;;;10.10;;
52786;SDS011;38661;53.152;5.846;2023-08-12T04:01:07;18.08;;;10.45;;
52786;SDS011;38661;53.152;5.846;2023-08-12T04:03:33;13.68;;;9.80;;
52786;SDS011;38661;53.152;5.846;2023-08-12T04:05:59;16.50;;;10.52;;
52786;SDS011;38661;53.152;5.846;2023-08-12T04:08:24;15.55;;;8.73;;
52786;SDS011;38661;53.152;5.846;2023-08-12T04:10:50;13.32;;;9.45;;
52786;SDS011;38661;53.152;5.846;2023-08-12T04:13:17;14.50;;;8.75;;
52786;SDS011;38661;53.152;5.846;2023-08-12T04:15:43;12.07;;;8.40;;
52786;SDS011;38661;53.152;5.846;2023-08-12T04:18:13;12.50;;;8.65;;
52786;SDS011;38661;53.152;5.846;2023-08-12T04:20:39;13.00;;;8.98;;
52786;SDS011;38661;53.152;5.846;2023-08-12T04:23:05;12.93;;;9.18;;
52786;SDS011;38661;53.152;5.846;2023-08-12T04:25:31;12.77;;;8.85;;
52786;SDS011;38661;53.152;5.846;2023-08-12T04:27:57;18.33;;;9.77;;
52786;SDS011;38661;53.152;5.846;2023-08-12T04:30:23;14.43;;;9.85;;
52786;SDS011;38661;53.152;5.846;2023-08-12T04:32:49;12.68;;;10.07;;
52786;SDS011;38661;53.152;5.846;2023-08-12T04:35:14;14.23;;;8.68;;
52786;SDS011;38661;53.152;5.846;2023-08-12T04:37:40;14.93;;;9.48;;
52786;SDS011;38661;53.152;5.846;2023-08-12T04:40:06;9.55;;;7.70;;
52786;SDS011;38661;53.152;5.846;2023-08-12T04:42:33;19.10;;;9.57;;
52786;SDS011;38661;53.152;5.846;2023-08-12T04:44:58;14.35;;;8.98;;
52786;SDS011;38661;53.152;5.846;2023-08-12T04:47:24;17.73;;;10.18;;
52786;SDS011;38661;53.152;5.846;2023-08-12T04:49:50;11.45;;;8.35;;
52786;SDS011;38661;53.152;5.846;2023-08-12T04:52:16;17.45;;;9.63;;
52786;SDS011;38661;53.152;5.846;2023-08-12T04:54:42;14.05;;;9.80;;
52786;SDS011;38661;53.152;5.846;2023-08-12T04:57:08;15.13;;;9.77;;
52786;SDS011;38661;53.152;5.846;2023-08-12T04:59:34;15.23;;;8.30;;
52786;SDS011;38661;53.152;5.846;2023-08-12T05:02:00;12.80;;;8.15;;
52786;SDS011;38661;53.152;5.846;2023-08-12T05:04:25;15.10;;;10.00;;
52786;SDS011;38661;53.152;5.846;2023-08-12T05:06:51;15.43;;;9.68;;
52786;SDS011;38661;53.152;5.846;2023-08-12T05:09:17;15.15;;;10.27;;
52786;SDS011;38661;53.152;5.846;2023-08-12T05:11:42;13.45;;;9.05;;
52786;SDS011;38661;53.152;5.846;2023-08-12T05:14:08;14.68;;;8.18;;
52786;SDS011;38661;53.152;5.846;2023-08-12T05:16:34;14.73;;;9.80;;
52786;SDS011;38661;53.152;5.846;2023-08-12T05:19:00;14.98;;;9.68;;
52786;SDS011;38661;53.152;5.846;2023-08-12T05:21:25;12.45;;;9.63;;
52786;SDS011;38661;53.152;5.846;2023-08-12T05:23:52;11.75;;;9.32;;
52786;SDS011;38661;53.152;5.846;2023-08-12T05:26:17;14.50;;;9.48;;
52786;SDS011;38661;53.152;5.846;2023-08-12T05:28:43;16.73;;;10.13;;
52786;SDS011;38661;53.152;5.846;2023-08-12T05:31:09;13.38;;;10.45;;
52786;SDS011;38661;53.152;5.846;2023-08-12T05:33:34;15.85;;;10.98;;
52786;SDS011;38661;53.152;5.846;2023-08-12T05:36:00;16.58;;;10.60;;
52786;SDS011;38661;53.152;5.846;2023-08-12T05:38:26;18.38;;;10.82;;
52786;SDS011;38661;53.152;5.846;2023-08-12T05:40:52;14.70;;;10.93;;
52786;SDS011;38661;53.152;5.846;2023-08-12T05:43:17;14.35;;;10.60;;
52786;SDS011;38661;53.152;5.846;2023-08-12T05:45:43;15.32;;;10.35;;
52786;SDS011;38661;53.152;5.846;2023-08-12T05:48:09;17.02;;;10.63;;
52786;SDS011;38661;53.152;5.846;2023-08-12T05:50:34;19.85;;;11.77;;
52786;SDS011;38661;53.152;5.846;2023-08-12T05:53:00;16.85;;;10.30;;
52786;SDS011;38661;53.152;5.846;2023-08-12T05:55:25;16.42;;;10.93;;
52786;SDS011;38661;53.152;5.846;2023-08-12T05:57:51;14.95;;;11.40;;
52786;SDS011;38661;53.152;5.846;2023-08-12T06:00:17;21.23;;;11.70;;
52786;SDS011;38661;53.152;5.846;2023-08-12T06:02:42;15.27;;;10.55;;
52786;SDS011;38661;53.152;5.846;2023-08-12T06:05:08;18.58;;;12.20;;
52786;SDS011;38661;53.152;5.846;2023-08-12T06:07:34;20.77;;;13.07;;
52786;SDS011;38661;53.152;5.846;2023-08-12T06:10:00;18.92;;;11.13;;
52786;SDS011;38661;53.152;5.846;2023-08-12T06:12:26;18.73;;;11.38;;
52786;SDS011;38661;53.152;5.846;2023-08-12T06:14:52;18.20;;;11.35;;
52786;SDS011;38661;53.152;5.846;2023-08-12T06:17:17;19.17;;;12.40;;
52786;SDS011;38661;53.152;5.846;2023-08-12T06:19:43;19.92;;;11.85;;
52786;SDS011;38661;53.152;5.846;2023-08-12T06:22:09;20.30;;;12.45;;
52786;SDS011;38661;53.152;5.846;2023-08-12T06:24:34;17.63;;;12.15;;
52786;SDS011;38661;53.152;5.846;2023-08-12T06:27:00;20.73;;;12.25;;
52786;SDS011;38661;53.152;5.846;2023-08-12T06:29:26;18.40;;;11.73;;
52786;SDS011;38661;53.152;5.846;2023-08-12T06:31:52;19.13;;;12.32;;
52786;SDS011;38661;53.152;5.846;2023-08-12T06:34:18;17.05;;;12.60;;
52786;SDS011;38661;53.152;5.846;2023-08-12T06:36:44;17.30;;;12.55;;
52786;SDS011;38661;53.152;5.846;2023-08-12T06:39:09;19.90;;;12.35;;
52786;SDS011;38661;53.152;5.846;2023-08-12T06:41:35;17.88;;;12.65;;
52786;SDS011;38661;53.152;5.846;2023-08-12T06:44:01;19.80;;;12.88;;
52786;SDS011;38661;53.152;5.846;2023-08-12T06:46:29;17.52;;;12.80;;
52786;SDS011;38661;53.152;5.846;2023-08-12T06:48:55;20.23;;;13.27;;
52786;SDS011;38661;53.152;5.846;2023-08-12T06:51:21;22.08;;;14.18;;
52786;SDS011;38661;53.152;5.846;2023-08-12T06:53:47;18.85;;;12.25;;
52786;SDS011;38661;53.152;5.846;2023-08-12T06:56:13;20.63;;;12.27;;
52786;SDS011;38661;53.152;5.846;2023-08-12T06:58:39;20.48;;;13.45;;
52786;SDS011;38661;53.152;5.846;2023-08-12T07:01:04;20.27;;;13.57;;
52786;SDS011;38661;53.152;5.846;2023-08-12T07:03:30;29.80;;;16.23;;
52786;SDS011;38661;53.152;5.846;2023-08-12T07:05:57;22.75;;;14.48;;
52786;SDS011;38661;53.152;5.846;2023-08-12T07:08:23;29.13;;;14.70;;
52786;SDS011;38661;53.152;5.846;2023-08-12T07:10:49;21.25;;;15.80;;
52786;SDS011;38661;53.152;5.846;2023-08-12T07:13:15;19.92;;;15.77;;
52786;SDS011;38661;53.152;5.846;2023-08-12T07:15:41;23.88;;;15.77;;
52786;SDS011;38661;53.152;5.846;2023-08-12T07:18:06;22.30;;;15.60;;
52786;SDS011;38661;53.152;5.846;2023-08-12T07:20:32;22.25;;;15.25;;
52786;SDS011;38661;53.152;5.846;2023-08-12T07:22:58;25.55;;;15.95;;
52786;SDS011;38661;53.152;5.846;2023-08-12T07:25:23;19.15;;;15.32;;
52786;SDS011;38661;53.152;5.846;2023-08-12T07:27:49;25.92;;;16.13;;
52786;SDS011;38661;53.152;5.846;2023-08-12T07:30:15;23.45;;;17.10;;
52786;SDS011;38661;53.152;5.846;2023-08-12T07:32:41;23.40;;;17.13;;
52786;SDS011;38661;53.152;5.846;2023-08-12T07:35:06;24.65;;;16.33;;
52786;SDS011;38661;53.152;5.846;2023-08-12T07:37:32;21.85;;;15.02;;
52786;SDS011;38661;53.152;5.846;2023-08-12T07:39:58;23.38;;;15.55;;
52786;SDS011;38661;53.152;5.846;2023-08-12T07:42:24;25.02;;;16.50;;
52786;SDS011;38661;53.152;5.846;2023-08-12T07:44:50;20.95;;;15.10;;
52786;SDS011;38661;53.152;5.846;2023-08-12T07:47:15;18.58;;;15.98;;
52786;SDS011;38661;53.152;5.846;2023-08-12T07:49:42;22.35;;;15.40;;
52786;SDS011;38661;53.152;5.846;2023-08-12T07:52:08;20.40;;;14.50;;
52786;SDS011;38661;53.152;5.846;2023-08-12T07:54:34;22.70;;;16.77;;
52786;SDS011;38661;53.152;5.846;2023-08-12T07:57:00;26.50;;;16.75;;
52786;SDS011;38661;53.152;5.846;2023-08-12T07:59:26;26.63;;;16.55;;
52786;SDS011;38661;53.152;5.846;2023-08-12T08:01:52;28.40;;;18.65;;
52786;SDS011;38661;53.152;5.846;2023-08-12T08:04:17;28.17;;;18.20;;
52786;SDS011;38661;53.152;5.846;2023-08-12T08:06:43;29.55;;;19.45;;
52786;SDS011;38661;53.152;5.846;2023-08-12T08:09:09;22.25;;;16.38;;
52786;SDS011;38661;53.152;5.846;2023-08-12T08:11:35;25.48;;;18.92;;
52786;SDS011;38661;53.152;5.846;2023-08-12T08:14:01;24.90;;;17.92;;
52786;SDS011;38661;53.152;5.846;2023-08-12T08:16:27;25.73;;;18.52;;
52786;SDS011;38661;53.152;5.846;2023-08-12T08:18:53;26.85;;;19.63;;
52786;SDS011;38661;53.152;5.846;2023-08-12T08:21:18;25.58;;;17.45;;
52786;SDS011;38661;53.152;5.846;2023-08-12T08:23:44;25.77;;;19.27;;
52786;SDS011;38661;53.152;5.846;2023-08-12T08:26:10;28.27;;;18.88;;
52786;SDS011;38661;53.152;5.846;2023-08-12T08:28:37;24.65;;;17.00;;
52786;SDS011;38661;53.152;5.846;2023-08-12T08:31:03;24.80;;;18.08;;
52786;SDS011;38661;53.152;5.846;2023-08-12T08:33:29;22.27;;;16.85;;
52786;SDS011;38661;53.152;5.846;2023-08-12T08:35:55;25.83;;;18.30;;
52786;SDS011;38661;53.152;5.846;2023-08-12T08:38:20;21.90;;;15.77;;
52786;SDS011;38661;53.152;5.846;2023-08-12T08:40:48;33.17;;;19.88;;
52786;SDS011;38661;53.152;5.846;2023-08-12T08:43:15;26.13;;;18.83;;
52786;SDS011;38661;53.152;5.846;2023-08-12T08:45:49;21.50;;;15.90;;
52786;SDS011;38661;53.152;5.846;2023-08-12T08:48:19;28.05;;;18.40;;
52786;SDS011;38661;53.152;5.846;2023-08-12T08:50:45;20.85;;;15.43;;
52786;SDS011;38661;53.152;5.846;2023-08-12T08:53:13;28.55;;;20.38;;
52786;SDS011;38661;53.152;5.846;2023-08-12T08:55:41;27.83;;;20.00;;
52786;SDS011;38661;53.152;5.846;2023-08-12T08:58:07;25.02;;;20.42;;
52786;SDS011;38661;53.152;5.846;2023-08-12T09:00:32;31.40;;;22.50;;
52786;SDS011;38661;53.152;5.846;2023-08-12T09:02:58;27.58;;;20.17;;
52786;SDS011;38661;53.152;5.846;2023-08-12T09:05:25;28.70;;;22.25;;
52786;SDS011;38661;53.152;5.846;2023-08-12T09:07:52;33.00;;;23.30;;
52786;SDS011;38661;53.152;5.846;2023-08-12T09:10:20;27.25;;;21.30;;
52786;SDS011;38661;53.152;5.846;2023-08-12T09:12:46;24.80;;;20.15;;
52786;SDS011;38661;53.152;5.846;2023-08-12T09:15:12;23.48;;;19.38;;
52786;SDS011;38661;53.152;5.846;2023-08-12T09:17:38;26.17;;;18.77;;
52786;SDS011;38661;53.152;5.846;2023-08-12T09:20:05;29.85;;;22.02;;
52786;SDS011;38661;53.152;5.846;2023-08-12T09:22:36;29.20;;;20.27;;
52786;SDS011;38661;53.152;5.846;2023-08-12T09:25:06;30.30;;;22.15;;
52786;SDS011;38661;53.152;5.846;2023-08-12T09:27:34;27.33;;;20.55;;
52786;SDS011;38661;53.152;5.846;2023-08-12T09:30:04;26.25;;;20.60;;
52786;SDS011;38661;53.152;5.846;2023-08-12T09:32:31;28.42;;;21.90;;
52786;SDS011;38661;53.152;5.846;2023-08-12T09:34:59;28.55;;;21.85;;
52786;SDS011;38661;53.152;5.846;2023-08-12T09:37:27;28.40;;;22.17;;
52786;SDS011;38661;53.152;5.846;2023-08-12T09:39:53;29.05;;;22.15;;
52786;SDS011;38661;53.152;5.846;2023-08-12T09:42:19;28.75;;;21.02;;
52786;SDS011;38661;53.152;5.846;2023-08-12T09:44:45;32.40;;;20.33;;
52786;SDS011;38661;53.152;5.846;2023-08-12T09:47:11;24.75;;;13.43;;
52786;SDS011;38661;53.152;5.846;2023-08-12T09:49:37;17.58;;;11.90;;
52786;SDS011;38661;53.152;5.846;2023-08-12T09:52:04;16.15;;;10.52;;
52786;SDS011;38661;53.152;5.846;2023-08-12T09:54:31;9.25;;;4.63;;
52786;SDS011;38661;53.152;5.846;2023-08-12T09:56:58;7.88;;;3.97;;
52786;SDS011;38661;53.152;5.846;2023-08-12T09:59:30;11.60;;;3.85;;
52786;SDS011;38661;53.152;5.846;2023-08-12T10:02:01;6.63;;;3.65;;
52786;SDS011;38661;53.152;5.846;2023-08-12T10:04:39;7.30;;;3.58;;
52786;SDS011;38661;53.152;5.846;2023-08-12T10:07:07;7.03;;;3.40;;
52786;SDS011;38661;53.152;5.846;2023-08-12T10:09:35;8.90;;;3.65;;
52786;SDS011;38661;53.152;5.846;2023-08-12T10:12:01;6.57;;;3.45;;
52786;SDS011;38661;53.152;5.846;2023-08-12T10:14:27;5.85;;;3.40;;
52786;SDS011;38661;53.152;5.846;2023-08-12T10:16:54;9.18;;;3.22;;
52786;SDS011;38661;53.152;5.846;2023-08-12T10:19:21;6.55;;;2.95;;
52786;SDS011;38661;53.152;5.846;2023-08-12T10:21:50;6.05;;;2.50;;
52786;SDS011;38661;53.152;5.846;2023-08-12T10:24:21;6.45;;;2.47;;
52786;SDS011;38661;53.152;5.846;2023-08-12T10:26:51;6.68;;;2.13;;
52786;SDS011;38661;53.152;5.846;2023-08-12T10:29:18;5.80;;;2.70;;
52786;SDS011;38661;53.152;5.846;2023-08-12T10:31:45;8.10;;;2.83;;
52786;SDS011;38661;53.152;5.846;2023-08-12T10:34:21;9.77;;;2.75;;
52786;SDS011;38661;53.152;5.846;2023-08-12T10:36:48;7.60;;;2.95;;
52786;SDS011;38661;53.152;5.846;2023-08-12T10:39:21;6.45;;;3.00;;
52786;SDS011;38661;53.152;5.846;2023-08-12T10:41:51;5.95;;;3.05;;
52786;SDS011;38661;53.152;5.846;2023-08-12T10:44:19;7.50;;;2.33;;
52786;SDS011;38661;53.152;5.846;2023-08-12T10:46:50;9.45;;;2.75;;
52786;SDS011;38661;53.152;5.846;2023-08-12T10:49:18;8.38;;;2.85;;
52786;SDS011;38661;53.152;5.846;2023-08-12T10:54:28;6.90;;;3.15;;
52786;SDS011;38661;53.152;5.846;2023-08-12T11:02:16;8.35;;;3.95;;
52786;SDS011;38661;53.152;5.846;2023-08-12T11:04:43;8.53;;;2.83;;
52786;SDS011;38661;53.152;5.846;2023-08-12T11:07:19;7.25;;;3.20;;
52786;SDS011;38661;53.152;5.846;2023-08-12T11:09:50;7.43;;;3.30;;
52786;SDS011;38661;53.152;5.846;2023-08-12T11:12:30;10.23;;;3.72;;
52786;SDS011;38661;53.152;5.846;2023-08-12T11:14:58;12.20;;;4.00;;
52786;SDS011;38661;53.152;5.846;2023-08-12T11:17:41;7.63;;;2.90;;
52786;SDS011;38661;53.152;5.846;2023-08-12T11:20:09;6.15;;;3.13;;
52786;SDS011;38661;53.152;5.846;2023-08-12T11:22:36;9.88;;;4.45;;
52786;SDS011;38661;53.152;5.846;2023-08-12T11:25:04;9.38;;;3.55;;
52786;SDS011;38661;53.152;5.846;2023-08-12T11:27:51;10.07;;;3.92;;
52786;SDS011;38661;53.152;5.846;2023-08-12T11:30:18;10.95;;;3.90;;
52786;SDS011;38661;53.152;5.846;2023-08-12T11:32:49;6.35;;;3.83;;
52786;SDS011;38661;53.152;5.846;2023-08-12T11:35:16;9.55;;;4.13;;
52786;SDS011;38661;53.152;5.846;2023-08-12T11:37:50;10.07;;;3.88;;
52786;SDS011;38661;53.152;5.846;2023-08-12T11:40:21;10.95;;;4.07;;
52786;SDS011;38661;53.152;5.846;2023-08-12T11:42:48;8.68;;;3.95;;
52786;SDS011;38661;53.152;5.846;2023-08-12T11:45:16;8.07;;;3.95;;
52786;SDS011;38661;53.152;5.846;2023-08-12T11:47:43;8.00;;;3.50;;
52786;SDS011;38661;53.152;5.846;2023-08-12T11:50:11;5.45;;;3.00;;
52786;SDS011;38661;53.152;5.846;2023-08-12T11:52:38;6.28;;;2.90;;
52786;SDS011;38661;53.152;5.846;2023-08-12T11:55:05;7.50;;;3.55;;
52786;SDS011;38661;53.152;5.846;2023-08-12T11:57:32;9.32;;;3.25;;
52786;SDS011;38661;53.152;5.846;2023-08-12T12:00:00;7.38;;;3.50;;
52786;SDS011;38661;53.152;5.846;2023-08-12T12:02:27;9.15;;;2.90;;
52786;SDS011;38661;53.152;5.846;2023-08-12T12:04:53;5.60;;;2.75;;
52786;SDS011;38661;53.152;5.846;2023-08-12T12:07:23;6.80;;;2.90;;
52786;SDS011;38661;53.152;5.846;2023-08-12T12:09:50;8.15;;;3.35;;
52786;SDS011;38661;53.152;5.846;2023-08-12T12:12:17;9.35;;;3.28;;
52786;SDS011;38661;53.152;5.846;2023-08-12T12:14:43;7.57;;;4.10;;
52786;SDS011;38661;53.152;5.846;2023-08-12T12:17:12;5.93;;;3.45;;
52786;SDS011;38661;53.152;5.846;2023-08-12T12:19:40;8.15;;;3.97;;
52786;SDS011;38661;53.152;5.846;2023-08-12T12:22:06;12.52;;;5.13;;
52786;SDS011;38661;53.152;5.846;2023-08-12T12:24:38;10.23;;;3.75;;
52786;SDS011;38661;53.152;5.846;2023-08-12T12:27:11;10.45;;;3.60;;
52786;SDS011;38661;53.152;5.846;2023-08-12T12:29:37;12.50;;;3.97;;
52786;SDS011;38661;53.152;5.846;2023-08-12T12:32:03;8.20;;;3.20;;
52786;SDS011;38661;53.152;5.846;2023-08-12T12:34:29;8.55;;;3.55;;
52786;SDS011;38661;53.152;5.846;2023-08-12T12:36:55;9.43;;;3.38;;
52786;SDS011;38661;53.152;5.846;2023-08-12T12:39:21;13.07;;;3.38;;
52786;SDS011;38661;53.152;5.846;2023-08-12T12:41:48;9.63;;;3.33;;
52786;SDS011;38661;53.152;5.846;2023-08-12T12:44:14;8.05;;;3.30;;
52786;SDS011;38661;53.152;5.846;2023-08-12T12:46:40;11.25;;;3.10;;
52786;SDS011;38661;53.152;5.846;2023-08-12T12:49:05;11.90;;;3.47;;
52786;SDS011;38661;53.152;5.846;2023-08-12T12:51:31;10.63;;;3.92;;
52786;SDS011;38661;53.152;5.846;2023-08-12T12:53:57;5.97;;;2.88;;
52786;SDS011;38661;53.152;5.846;2023-08-12T12:56:23;9.27;;;2.85;;
52786;SDS011;38661;53.152;5.846;2023-08-12T12:58:49;9.95;;;2.88;;
52786;SDS011;38661;53.152;5.846;2023-08-12T13:01:14;7.80;;;2.83;;
52786;SDS011;38661;53.152;5.846;2023-08-12T13:03:40;11.35;;;3.88;;
52786;SDS011;38661;53.152;5.846;2023-08-12T13:06:06;8.02;;;2.47;;
52786;SDS011;38661;53.152;5.846;2023-08-12T13:08:32;6.05;;;2.53;;
52786;SDS011;38661;53.152;5.846;2023-08-12T13:10:58;12.60;;;3.30;;
52786;SDS011;38661;53.152;5.846;2023-08-12T13:13:24;7.55;;;2.72;;
52786;SDS011;38661;53.152;5.846;2023-08-12T13:15:50;9.07;;;3.03;;
52786;SDS011;38661;53.152;5.846;2023-08-12T13:18:15;10.23;;;2.95;;
52786;SDS011;38661;53.152;5.846;2023-08-12T13:20:41;7.55;;;2.47;;
52786;SDS011;38661;53.152;5.846;2023-08-12T13:23:07;10.23;;;2.85;;
52786;SDS011;38661;53.152;5.846;2023-08-12T13:25:33;7.07;;;2.55;;
52786;SDS011;38661;53.152;5.846;2023-08-12T13:28:00;6.53;;;2.75;;
52786;SDS011;38661;53.152;5.846;2023-08-12T13:30:26;9.18;;;2.70;;
52786;SDS011;38661;53.152;5.846;2023-08-12T13:32:52;12.80;;;2.40;;
52786;SDS011;38661;53.152;5.846;2023-08-12T13:35:18;8.88;;;2.90;;
52786;SDS011;38661;53.152;5.846;2023-08-12T13:37:44;7.57;;;2.83;;
52786;SDS011;38661;53.152;5.846;2023-08-12T13:40:10;9.90;;;2.92;;
52786;SDS011;38661;53.152;5.846;2023-08-12T13:42:37;10.30;;;3.45;;
52786;SDS011;38661;53.152;5.846;2023-08-12T13:45:03;8.23;;;2.28;;
52786;SDS011;38661;53.152;5.846;2023-08-12T13:47:29;8.48;;;3.30;;
52786;SDS011;38661;53.152;5.846;2023-08-12T13:49:55;9.35;;;3.45;;
52786;SDS011;38661;53.152;5.846;2023-08-12T13:52:21;7.05;;;2.70;;
52786;SDS011;38661;53.152;5.846;2023-08-12T13:54:47;7.30;;;2.58;;
52786;SDS011;38661;53.152;5.846;2023-08-12T13:57:13;10.02;;;2.75;;
52786;SDS011;38661;53.152;5.846;2023-08-12T13:59:39;10.23;;;3.20;;
52786;SDS011;38661;53.152;5.846;2023-08-12T14:02:08;10.07;;;2.60;;
52786;SDS011;38661;53.152;5.846;2023-08-12T14:04:35;9.27;;;3.47;;
52786;SDS011;38661;53.152;5.846;2023-08-12T14:07:02;8.13;;;2.28;;
52786;SDS011;38661;53.152;5.846;2023-08-12T14:09:28;4.68;;;2.28;;
52786;SDS011;38661;53.152;5.846;2023-08-12T14:11:54;9.98;;;2.47;;
52786;SDS011;38661;53.152;5.846;2023-08-12T14:14:20;8.95;;;3.33;;
52786;SDS011;38661;53.152;5.846;2023-08-12T14:16:46;7.63;;;2.70;;
52786;SDS011;38661;53.152;5.846;2023-08-12T14:19:11;8.30;;;2.70;;
52786;SDS011;38661;53.152;5.846;2023-08-12T14:21:41;8.88;;;2.95;;
52786;SDS011;38661;53.152;5.846;2023-08-12T14:24:07;7.15;;;2.38;;
52786;SDS011;38661;53.152;5.846;2023-08-12T14:26:33;9.90;;;3.00;;
52786;SDS011;38661;53.152;5.846;2023-08-12T14:28:59;10.45;;;2.70;;
52786;SDS011;38661;53.152;5.846;2023-08-12T14:31:25;7.47;;;2.65;;
52786;SDS011;38661;53.152;5.846;2023-08-12T14:33:51;9.57;;;2.45;;
52786;SDS011;38661;53.152;5.846;2023-08-12T14:36:16;6.93;;;2.65;;
52786;SDS011;38661;53.152;5.846;2023-08-12T14:38:42;11.73;;;3.33;;